Date,TemperatureHighF,TemperatureAvgF,TemperatureLowF,DewpointHighF,DewpointAvgF,DewpointLowF,HumidityHigh,HumidityAvg,HumidityLow,PressureMaxIn,PressureMinIn,WindSpeedMaxMPH,WindSpeedAvgMPH,GustSpeedMaxMPH,PrecipitationSumIn
2013-2-1,31.3,26.7,22.2,16.9,11.9,5.3,69,54,38,30.19,29.73,11,6,27,0.00
2013-2-2,28.7,23.3,17.7,21.1,12.7,7.0,88,65,41,30.28,30.04,9,4,15,0.02
2013-2-3,32.1,25.8,18.7,21.7,18.3,13.7,88,74,55,30.04,29.77,5,1,9,0.01
2013-2-4,30.5,26.3,21.4,21.3,13.7,9.9,83,59,43,29.95,29.78,11,5,21,0.00
2013-2-5,30.4,28.7,26.4,26.4,22.8,16.5,86,78,63,29.97,29.89,2,0,4,0.00
2013-2-6,38.3,32.3,27.9,27.5,21.9,9.0,92,67,43,30.33,29.90,9,3,17,0.00
2013-2-7,32.4,27.3,21.7,22.6,13.6,8.4,75,57,41,30.50,30.31,4,1,8,0.00
2013-2-8,32.1,30.4,25.8,30.9,27.7,22.3,96,90,74,30.34,29.60,9,4,21,0.93
2013-2-9,31.8,26.2,18.8,24.5,18.1,7.4,96,73,48,30.30,29.71,12,6,24,0.46
2013-2-10,41.6,24.6,14.2,19.6,10.3,3.2,78,56,27,30.46,30.30,5,2,11,0.00
2013-2-11,41.9,35.3,26.9,41.4,32.9,19.0,100,91,71,30.32,29.65,5,0,9,0.30
2013-2-12,43.4,38.2,32.7,38.1,29.5,25.0,100,72,55,29.95,29.68,10,4,22,0.01
2013-2-13,45.4,35.0,22.9,32.5,26.4,20.9,96,72,47,29.93,29.68,5,1,12,0.05
2013-2-14,45.2,36.6,28.6,32.7,29.1,25.5,93,76,52,29.98,29.70,5,1,8,0.01
2013-2-15,52.7,39.7,29.4,36.9,31.7,26.0,88,75,45,30.00,29.90,6,2,11,0.00
2013-2-16,39.2,34.0,28.9,34.0,25.8,15.6,93,73,54,29.95,29.70,6,3,14,0.03
2013-2-17,31.1,24.6,15.7,16.0,7.3,1.9,58,48,33,29.93,29.61,16,8,29,0.00
2013-2-18,33.7,24.2,15.7,18.0,9.5,4.0,70,54,39,30.20,29.93,14,6,26,0.00
2013-2-19,45.1,35.4,23.1,41.1,29.6,17.3,96,80,59,30.19,29.65,11,2,18,0.25
2013-2-20,36.8,30.0,23.8,27.9,17.3,11.2,71,59,46,29.93,29.67,13,8,26,0.00
2013-2-21,33.1,26.8,23.2,16.8,14.8,12.6,71,60,50,30.27,29.93,14,7,27,0.00
2013-2-22,38.0,31.0,23.3,29.8,22.8,15.4,81,72,56,30.40,30.25,7,2,18,0.00
2013-2-23,39.0,36.2,34.4,38.2,34.0,29.6,97,92,79,30.27,29.79,5,2,9,0.02
2013-2-24,44.2,37.5,32.3,38.4,33.5,26.0,96,86,63,29.93,29.72,9,3,17,0.00
2013-2-25,44.7,37.3,30.3,31.1,27.6,24.0,80,68,52,30.23,29.93,6,2,13,0.00
2013-2-26,39.9,35.4,30.9,33.2,30.1,26.6,95,81,64,30.30,29.92,7,2,14,0.13
2013-2-27,44.2,40.7,34.2,43.1,39.4,32.9,98,95,87,29.93,29.48,11,5,19,0.84
2013-2-28,47.7,41.3,36.4,40.1,35.6,32.4,94,81,63,29.61,29.53,5,1,10,0.02